• Join FlightAware (Why Join?)
  • Login
  • US Flag 
07:32AM EDT


 

Airport Tracker/Info


-or-


 

Live Flight TrackerFlight Track Log ✈ AWE3225 ✈ 31-Mar-2014 ✈ KSYR - KDCA

Flight Track Log - Related Links

Times and Time Zones

All times are in EDT time to prevent confusion due to time zone crossing. See the AWE3225 flight status page for this flight to view local times or setup timezone preferences in your user account.

Time Position Orientation Groundspeed Altitude Reporting Facility
EDT Latitude Longitude Course Direction KTS MPH feet Rate Location/Type
05:39AM 43.1081 -76.1306 208° Southwest 133 153 1,200  Level Boston Center
05:39AM 43.1069 -76.1361 255° West 152 175 1,400 1,380 Climbing Boston Center
05:40AM 43.0708 -76.1858 225° Southwest 238 274 2,800 1,680 Climbing Boston Center
05:41AM 42.7874 -76.1816 204° Southwest  Level Estimated
05:41AM 43.0150 -76.2303 210° Southwest 260 299 4,700  Level Boston Center
05:41AM 43.0036 -76.2406 213° Southwest 314 361 5,200 3,000 Climbing Boston Center
05:42AM 42.6795 -76.2065 209° Southwest  Level Estimated
05:42AM 42.9406 -76.2956 213° Southwest 309 356 7,800  Level Boston Center
05:43AM 42.5716 -76.2313 216° Southwest  Level Estimated
05:43AM 42.8622 -76.3631 212° Southwest 326 375 10,000  Level Boston Center
05:44AM 42.4637 -76.2560 208° Southwest  Level Estimated
05:44AM 42.7692 -76.4436 212° Southwest 361 415 11,600  Level Boston Center
05:45AM 42.6825 -76.5197 213° Southwest 367 422 14,400 2,580 Climbing Boston Center
05:46AM 42.5936 -76.5958 212° Southwest 372 428 16,700 2,100 Climbing Boston Center
05:47AM 42.5006 -76.6778 213° Southwest 393 452 18,600 2,040 Climbing Boston Center
05:48AM 42.4022 -76.7617 212° Southwest 413 475 20,800 2,160 Climbing Boston Center
05:49AM 42.3025 -76.8469 212° Southwest 419 482 23,000 1,380 Climbing Boston Center
05:49AM 42.2400 -76.9022 213° Southwest 432 497 23,000 540 Level New York Center
05:50AM 42.1419 -76.9853 212° Southwest 432 497 23,900 480 Climbing New York Center
05:51AM 42.0394 -77.0706 212° Southwest 432 497 24,000  Climbing New York Center
05:52AM 41.9372 -77.1558 212° Southwest 432 497 24,000  Level New York Center
05:53AM 41.8411 -77.2383 213° Southwest 432 497 24,000  Level New York Center
05:54AM 41.7386 -77.3231 212° Southwest 432 497 24,000  Level New York Center
05:55AM 41.6403 -77.4050 212° Southwest 432 497 24,000  Level New York Center
05:56AM 41.5356 -77.4861 210° Southwest 432 497 24,000  Level New York Center
05:57AM 41.4169 -77.4853 180° South 420 483 24,000  Level New York Center
05:58AM 41.3028 -77.4408 164° South 410 472 24,000  Level New York Center
05:59AM 41.1886 -77.3964 164° South 424 488 24,000 -180 Level New York Center
06:00AM 41.0822 -77.3586 165° South 434 499 23,700 -600 Descending New York Center
06:01AM 40.9658 -77.3169 165° South 434 499 22,800 -960 Descending New York Center
06:02AM 40.8536 -77.2733 164° South 434 499 21,800 -1,020 Descending New York Center
06:03AM 40.7414 -77.2297 164° South 427 491 20,800 -1,020 Descending New York Center
06:04AM 40.6311 -77.1867 163° South 427 491 19,800 -960 Descending New York Center
06:05AM 40.5208 -77.1464 164° South 417 480 19,000 -420 Descending New York Center
06:06AM 40.4022 -77.1053 165° South 411 473 19,000  Level New York Center
06:07AM 40.3019 -77.0661 163° South 411 473 19,000  Level New York Center
06:08AM 40.1833 -77.0256 165° South 411 473 19,000  Level New York Center
06:09AM 40.0853 -76.9869 163° South 411 473 19,000  Level New York Center
06:10AM 39.9625 -76.9433 165° South 411 473 19,000 -420 Level New York Center
06:12AM 39.8167 -76.8833 162° South 410 472 18,100 -1,440 Descending Potomac TRACON
06:13AM 39.6833 -76.8500 169° South 399 459 15,500 -2,100 Descending Potomac TRACON
06:14AM 39.6000 -76.8167 163° South 397 457 13,900 -1,980 Descending Potomac TRACON
06:15AM 39.5000 -76.7833 166° South 389 448 12,000 -1,020 Descending Potomac TRACON
06:16AM 39.4000 -76.7500 166° South 384 442 12,000 -540 Level Potomac TRACON
06:17AM 39.2667 -76.7000 164° South 375 432 10,900 -960 Descending Potomac TRACON
06:18AM 39.2000 -76.6667 159° South 378 435 10,100 -540 Descending Potomac TRACON
06:18AM 39.1167 -76.7167 205° Southwest 314 361 10,000 -780 Descending Potomac TRACON
06:19AM 39.0333 -76.7833 212° Southwest 330 380 8,700 -1,620 Descending Potomac TRACON
06:20AM 38.9667 -76.8333 210° Southwest 330 380 6,800 -2,100 Descending Potomac TRACON
06:21AM 38.9000 -76.8833 210° Southwest 325 374 5,000 -1,860 Descending Potomac TRACON
06:22AM 38.8167 -76.9167 197° South 301 346 3,700 -1,260 Descending Potomac TRACON
06:23AM 38.7667 -76.9667 218° Southwest 256 295 2,700 -960 Descending Potomac TRACON
06:24AM 38.7667 -77.0167 270° West 142 163 1,800 -840 Descending Potomac TRACON
06:25AM 38.7833 -77.0333 322° Northwest 118 136 1,100 -720 Descending Potomac TRACON
06:26AM 38.8333 -77.0333 360° North 126 145 400 -720 Descending Potomac TRACON